Time;durP1;ratioP1;P1;durP2;ratioP2;P2;SDS_P1;SDS_P2;PMS_P1;PMS_P2;Temp;Humidity;BMP_temperature;BMP_pressure;BME280_temperature;BME280_humidity;BME280_pressure;Samples;Min_cycle;Max_cycle;Signal;HPM_P1;HPM_P2
2022/01/06 00:00:22;;;;;;;25.20;4.65;;;4.80;99.90;;;;;;5007000;28;20052;-69
2022/01/06 00:02:48;;;;;;;32.90;4.90;;;4.80;99.90;;;;;;5003284;28;20421;-70
2022/01/06 00:05:15;;;;;;;26.52;4.38;;;4.80;99.90;;;;;;5005836;28;20556;-70
2022/01/06 00:07:40;;;;;;;27.05;4.72;;;4.80;99.90;;;;;;5000445;28;20042;-69
2022/01/06 00:10:11;;;;;;;27.45;4.45;;;4.80;99.90;;;;;;5001608;28;20057;-70
2022/01/06 00:13:24;;;;;;;25.98;4.78;;;4.80;99.90;;;;;;5001072;28;20046;-69
2022/01/06 00:15:57;;;;;;;25.48;3.60;;;4.70;99.90;;;;;;4999610;28;20041;-69
2022/01/06 00:23:38;;;;;;;23.77;4.82;;;4.50;99.90;;;;;;4993290;28;20057;-69
2022/01/06 00:26:05;;;;;;;35.47;5.00;;;4.40;99.90;;;;;;5004989;28;20042;-70
2022/01/06 00:28:31;;;;;;;19.70;4.18;;;4.30;99.90;;;;;;4998988;28;20493;-69
2022/01/06 00:30:57;;;;;;;27.85;5.35;;;4.30;99.90;;;;;;5004485;28;20042;-69
2022/01/06 00:33:23;;;;;;;20.45;4.18;;;4.20;99.90;;;;;;5003896;28;20092;-70
2022/01/06 00:35:48;;;;;;;29.27;5.55;;;4.10;99.90;;;;;;5001348;28;20650;-69
2022/01/06 00:38:14;;;;;;;28.40;4.05;;;4.00;99.90;;;;;;4999027;28;20148;-70
2022/01/06 00:40:40;;;;;;;21.33;3.53;;;4.00;99.90;;;;;;5007715;28;20053;-69
2022/01/06 00:43:07;;;;;;;26.23;4.32;;;3.90;99.90;;;;;;5005418;28;20100;-69
2022/01/06 00:45:33;;;;;;;29.58;4.25;;;3.90;99.90;;;;;;4998978;28;20041;-69
2022/01/06 00:47:59;;;;;;;24.90;3.45;;;3.90;99.90;;;;;;5006466;28;20042;-69
2022/01/06 00:50:25;;;;;;;17.40;3.08;;;3.90;99.90;;;;;;4991130;28;20038;-69
2022/01/06 00:52:51;;;;;;;17.58;2.95;;;3.90;99.90;;;;;;5008752;28;20421;-69
2022/01/06 00:55:17;;;;;;;15.32;3.25;;;3.90;99.90;;;;;;5004013;28;20041;-70
2022/01/06 00:57:43;;;;;;;12.10;2.65;;;3.80;99.90;;;;;;5007835;28;20517;-69
2022/01/06 01:00:10;;;;;;;18.63;2.60;;;3.80;99.90;;;;;;5007663;28;20042;-69
2022/01/06 01:02:36;;;;;;;15.40;2.97;;;3.80;99.90;;;;;;5000053;28;20099;-70
2022/01/06 01:05:02;;;;;;;19.08;3.20;;;3.80;99.90;;;;;;5005761;28;20144;-70
2022/01/06 01:07:28;;;;;;;21.13;3.35;;;3.80;99.90;;;;;;5008076;28;20509;-70
2022/01/06 01:09:53;;;;;;;15.05;2.70;;;3.80;99.90;;;;;;5002988;28;20042;-70
2022/01/06 01:12:19;;;;;;;22.48;4.85;;;3.80;99.90;;;;;;5005602;28;20128;-69
2022/01/06 01:14:55;;;;;;;19.00;3.53;;;3.80;99.90;;;;;;5002711;28;20054;-69
2022/01/06 01:17:24;;;;;;;21.90;3.50;;;3.80;99.90;;;;;;5006628;28;20126;-70
2022/01/06 01:19:49;;;;;;;19.55;2.72;;;3.70;99.90;;;;;;5000835;28;20046;-69
2022/01/06 01:22:15;;;;;;;12.65;2.88;;;3.70;99.90;;;;;;5006359;28;20065;-69
2022/01/06 01:24:41;;;;;;;20.50;3.88;;;3.70;99.90;;;;;;5006277;28;20477;-69
2022/01/06 01:27:07;;;;;;;15.95;2.38;;;3.80;99.90;;;;;;5006751;28;20505;-70
2022/01/06 01:29:40;;;;;;;17.20;2.40;;;3.80;99.90;;;;;;5007046;28;20042;-69
2022/01/06 01:32:06;;;;;;;18.23;3.73;;;3.80;99.90;;;;;;5001929;28;20046;-69
2022/01/06 01:34:32;;;;;;;22.48;3.33;;;3.90;99.90;;;;;;5005230;28;20289;-69
2022/01/06 01:36:58;;;;;;;20.13;2.58;;;3.90;99.90;;;;;;5009321;28;20096;-69
2022/01/06 01:39:24;;;;;;;21.50;3.67;;;3.90;99.90;;;;;;5006422;28;20049;-69
2022/01/06 01:41:50;;;;;;;21.15;3.63;;;3.80;99.90;;;;;;5005570;28;20081;-69
2022/01/06 01:44:19;;;;;;;23.88;3.97;;;3.90;99.90;;;;;;5003982;28;20057;-70
2022/01/06 01:46:58;;;;;;;15.35;2.88;;;3.90;99.90;;;;;;4997500;28;20057;-69
2022/01/06 01:51:51;;;;;;;22.45;4.57;;;3.90;99.90;;;;;;4996851;28;20046;-70
2022/01/06 01:54:17;;;;;;;21.05;2.95;;;4.00;99.90;;;;;;5005956;28;20048;-69
2022/01/06 01:56:43;;;;;;;22.17;3.75;;;3.90;99.90;;;;;;4998891;28;20045;-69
2022/01/06 01:59:09;;;;;;;21.10;3.13;;;3.90;99.90;;;;;;5005958;28;20080;-69
2022/01/06 02:01:34;;;;;;;18.92;4.50;;;3.90;99.90;;;;;;5007922;28;20509;-69
2022/01/06 02:04:01;;;;;;;17.30;3.35;;;3.80;99.90;;;;;;5004088;28;20042;-69
2022/01/06 02:06:26;;;;;;;16.17;2.95;;;3.70;99.90;;;;;;4998302;28;20065;-69
2022/01/06 02:08:54;;;;;;;20.45;2.95;;;3.70;99.90;;;;;;5003067;28;20531;-69
2022/01/06 02:11:21;;;;;;;24.92;3.28;;;3.60;99.90;;;;;;5003766;28;20045;-69
2022/01/06 02:13:47;;;;;;;12.48;2.45;;;3.60;99.90;;;;;;5001717;28;20046;-71
2022/01/06 02:16:13;;;;;;;21.17;2.55;;;3.50;99.90;;;;;;5006896;28;20045;-69
2022/01/06 02:18:39;;;;;;;18.70;3.72;;;3.50;99.90;;;;;;5005872;28;20128;-70
2022/01/06 02:21:05;;;;;;;16.00;3.78;;;3.50;99.90;;;;;;5002651;28;20088;-70
2022/01/06 02:23:31;;;;;;;12.27;2.63;;;3.40;99.90;;;;;;5006517;28;20498;-69
2022/01/06 02:25:56;;;;;;;14.80;2.30;;;3.40;99.90;;;;;;4996103;28;20165;-69
2022/01/06 02:28:23;;;;;;;13.25;2.88;;;3.30;99.90;;;;;;4997503;28;20057;-69
2022/01/06 02:30:51;;;;;;;14.32;2.40;;;3.30;99.90;;;;;;4971699;28;20086;-69
2022/01/06 02:33:18;;;;;;;22.63;3.03;;;3.30;99.90;;;;;;4964177;28;20528;-69
2022/01/06 02:35:44;;;;;;;21.60;3.03;;;3.30;99.90;;;;;;4966227;28;20030;-69
2022/01/06 02:38:11;;;;;;;17.13;2.50;;;3.30;99.90;;;;;;4969296;28;20047;-69
2022/01/06 02:40:37;;;;;;;21.52;2.78;;;3.20;99.90;;;;;;4992515;28;20096;-69
2022/01/06 02:43:06;;;;;;;18.83;3.33;;;3.20;99.90;;;;;;4970166;28;20053;-69
2022/01/06 02:45:32;;;;;;;14.23;3.05;;;3.10;99.90;;;;;;4968418;28;20042;-69
2022/01/06 02:48:00;;;;;;;14.45;2.70;;;3.10;99.90;;;;;;4965529;28;20057;-69
2022/01/06 02:50:26;;;;;;;15.90;2.60;;;3.10;99.90;;;;;;4963720;28;20096;-69
2022/01/06 02:52:52;;;;;;;17.95;2.88;;;3.10;99.90;;;;;;4965920;28;20120;-69
2022/01/06 02:55:19;;;;;;;21.08;2.70;;;3.00;99.90;;;;;;4967050;28;20159;-69
2022/01/06 02:57:45;;;;;;;22.92;3.25;;;3.00;99.90;;;;;;4967884;28;20073;-69
2022/01/06 03:00:16;;;;;;;12.27;3.28;;;3.00;99.90;;;;;;4968831;28;20122;-69
2022/01/06 03:02:43;;;;;;;21.13;3.30;;;3.10;99.90;;;;;;4965605;28;20050;-69
2022/01/06 03:05:09;;;;;;;26.10;4.18;;;3.00;99.90;;;;;;4984163;28;20043;-70
2022/01/06 03:07:36;;;;;;;23.13;3.55;;;3.10;99.90;;;;;;4966274;28;20104;-69
2022/01/06 03:10:04;;;;;;;14.55;2.70;;;3.10;99.90;;;;;;4967511;28;20050;-69
2022/01/06 03:12:39;;;;;;;14.93;2.78;;;3.00;99.90;;;;;;4971119;28;20100;-70
2022/01/06 03:15:11;;;;;;;22.63;3.35;;;3.10;99.90;;;;;;4968646;28;20062;-69
2022/01/06 03:17:39;;;;;;;17.80;2.78;;;3.10;99.90;;;;;;4985501;28;20501;-69
2022/01/06 03:20:08;;;;;;;21.88;3.42;;;3.00;99.90;;;;;;4962897;28;20521;-70
2022/01/06 03:22:34;;;;;;;20.15;2.78;;;3.00;99.90;;;;;;4963208;28;20046;-69
2022/01/06 03:25:00;;;;;;;20.73;2.90;;;3.00;99.90;;;;;;4968259;28;20038;-69
2022/01/06 03:27:25;;;;;;;19.33;3.03;;;3.00;99.90;;;;;;4967678;28;20042;-69
2022/01/06 03:29:51;;;;;;;19.10;3.55;;;3.00;99.90;;;;;;4991301;28;20057;-69
2022/01/06 03:32:18;;;;;;;15.73;2.72;;;2.90;99.90;;;;;;4996436;28;20069;-69
2022/01/06 03:34:44;;;;;;;21.27;2.85;;;2.90;99.90;;;;;;4999517;28;20087;-69
2022/01/06 03:37:10;;;;;;;16.60;3.20;;;2.90;99.90;;;;;;4998378;28;20034;-69
2022/01/06 03:39:36;;;;;;;21.80;3.92;;;2.90;99.90;;;;;;4997050;28;20528;-69
2022/01/06 03:42:02;;;;;;;16.83;2.63;;;2.90;99.90;;;;;;4996391;28;20050;-69
2022/01/06 03:44:27;;;;;;;21.00;2.83;;;2.90;99.90;;;;;;4998479;28;20121;-68
2022/01/06 03:46:53;;;;;;;16.83;2.67;;;2.90;99.90;;;;;;5002440;28;20128;-69
2022/01/06 03:49:20;;;;;;;29.67;4.50;;;2.90;99.90;;;;;;4979663;28;20398;-69
2022/01/06 03:51:46;;;;;;;18.00;3.33;;;2.90;99.90;;;;;;4996448;28;20042;-69
2022/01/06 03:54:12;;;;;;;20.60;3.80;;;2.80;99.90;;;;;;4999288;28;20033;-69
2022/01/06 03:56:37;;;;;;;16.00;3.28;;;2.80;99.90;;;;;;4996820;28;20053;-69
2022/01/06 03:59:03;;;;;;;21.23;3.28;;;2.80;99.90;;;;;;4996088;28;20397;-69
2022/01/06 04:01:29;;;;;;;18.17;3.58;;;2.80;99.90;;;;;;4992897;28;21386;-69
2022/01/06 04:03:55;;;;;;;11.90;2.75;;;2.70;99.90;;;;;;4995574;28;20112;-69
2022/01/06 04:06:20;;;;;;;23.83;4.65;;;2.70;99.90;;;;;;4997041;28;20457;-68
2022/01/06 04:08:46;;;;;;;23.58;3.15;;;2.70;99.90;;;;;;4998054;28;20049;-69
2022/01/06 04:11:12;;;;;;;13.07;2.70;;;2.60;99.90;;;;;;4995823;28;20060;-69
2022/01/06 04:13:37;;;;;;;22.05;3.65;;;2.60;99.90;;;;;;4996760;28;20490;-69
2022/01/06 04:16:07;;;;;;;13.75;2.40;;;2.60;99.90;;;;;;4996248;28;20038;-69
2022/01/06 04:18:33;;;;;;;23.92;3.83;;;2.50;99.90;;;;;;4994110;28;20034;-69
2022/01/06 04:20:59;;;;;;;14.30;2.25;;;2.50;99.90;;;;;;4999528;28;20792;-69
2022/01/06 04:23:24;;;;;;;12.52;2.03;;;2.40;99.90;;;;;;5001164;28;20526;-69
2022/01/06 04:25:50;;;;;;;21.73;3.65;;;2.40;99.90;;;;;;5001410;28;20041;-69
2022/01/06 04:28:16;;;;;;;15.55;3.13;;;2.30;99.90;;;;;;5001086;28;20117;-69
2022/01/06 04:30:41;;;;;;;13.20;2.38;;;2.30;99.90;;;;;;4995603;28;20042;-69
2022/01/06 04:33:07;;;;;;;16.95;2.72;;;2.20;99.90;;;;;;5000330;28;20049;-70
2022/01/06 04:35:33;;;;;;;15.48;2.35;;;2.20;99.90;;;;;;5002380;28;20390;-69
2022/01/06 04:37:58;;;;;;;14.27;2.40;;;2.20;99.90;;;;;;5002345;28;20092;-69
2022/01/06 04:40:24;;;;;;;20.88;3.50;;;2.10;99.90;;;;;;4985083;28;20041;-68
2022/01/06 04:42:49;;;;;;;15.15;2.85;;;2.10;99.90;;;;;;4999379;28;20421;-69
2022/01/06 04:45:15;;;;;;;19.13;3.72;;;2.00;99.90;;;;;;4998568;28;20140;-70
2022/01/06 04:47:41;;;;;;;15.20;2.60;;;2.00;99.90;;;;;;5001094;28;20057;-69
2022/01/06 04:50:07;;;;;;;19.55;2.67;;;2.00;99.90;;;;;;4996755;28;20041;-70
2022/01/06 04:52:33;;;;;;;12.60;2.72;;;1.90;99.90;;;;;;5000375;28;20061;-70
2022/01/06 04:54:58;;;;;;;18.55;3.17;;;1.90;99.90;;;;;;4998415;28;20405;-69
2022/01/06 04:57:24;;;;;;;12.02;2.28;;;1.80;99.90;;;;;;5000653;28;20099;-69
2022/01/06 04:59:50;;;;;;;15.02;2.75;;;1.80;99.90;;;;;;5000176;28;20030;-69
2022/01/06 05:02:16;;;;;;;15.25;2.80;;;1.80;99.90;;;;;;4994709;28;20042;-68
2022/01/06 05:04:41;;;;;;;18.33;2.42;;;1.80;99.90;;;;;;4994377;28;20037;-69
2022/01/06 05:07:07;;;;;;;15.40;2.13;;;1.80;99.90;;;;;;4999126;28;20046;-69
2022/01/06 05:09:32;;;;;;;15.98;2.00;;;1.80;99.90;;;;;;4999118;28;20038;-69
2022/01/06 05:11:58;;;;;;;19.08;3.75;;;1.80;99.90;;;;;;4988915;28;20046;-69
2022/01/06 05:14:24;;;;;;;23.73;2.78;;;1.80;99.90;;;;;;4997686;28;20057;-69
2022/01/06 05:16:50;;;;;;;25.50;3.67;;;1.80;99.90;;;;;;4999047;28;20041;-69
2022/01/06 05:19:15;;;;;;;17.23;2.83;;;1.80;99.90;;;;;;4997612;28;20077;-69
2022/01/06 05:21:41;;;;;;;17.92;3.65;;;1.80;99.90;;;;;;4997618;28;20038;-69
2022/01/06 05:24:12;;;;;;;13.63;2.72;;;1.80;99.90;;;;;;4996542;28;20684;-69
2022/01/06 05:26:39;;;;;;;15.63;2.72;;;1.80;99.90;;;;;;4990910;28;20270;-69
2022/01/06 05:29:10;;;;;;;20.48;3.67;;;1.90;99.90;;;;;;4986869;28;20051;-70
2022/01/06 05:31:36;;;;;;;17.88;2.70;;;1.90;99.90;;;;;;4998407;28;20413;-69
2022/01/06 05:34:02;;;;;;;14.07;3.47;;;1.80;99.90;;;;;;4982699;28;20070;-68
2022/01/06 05:36:27;;;;;;;19.42;2.72;;;1.80;99.90;;;;;;4996503;28;20030;-69
2022/01/06 05:38:53;;;;;;;18.00;2.35;;;1.80;99.90;;;;;;4980405;28;20049;-69
2022/01/06 05:41:19;;;;;;;19.58;2.72;;;1.80;99.90;;;;;;4980500;28;20046;-69
2022/01/06 05:43:44;;;;;;;17.63;2.97;;;1.80;99.90;;;;;;5005478;28;20585;-69
2022/01/06 05:46:10;;;;;;;24.25;3.45;;;1.80;99.90;;;;;;5004933;28;20076;-70
2022/01/06 05:48:36;;;;;;;15.07;2.67;;;1.80;99.90;;;;;;5004598;28;20054;-68
2022/01/06 05:51:01;;;;;;;17.48;3.85;;;1.80;99.90;;;;;;4990979;28;20042;-69
2022/01/06 05:53:29;;;;;;;17.05;4.13;;;1.70;99.90;;;;;;4990875;28;20045;-69
2022/01/06 05:55:55;;;;;;;21.27;4.32;;;1.70;99.90;;;;;;4987900;28;21745;-68
2022/01/06 05:58:21;;;;;;;23.67;3.33;;;1.70;99.90;;;;;;4982790;28;20133;-69
2022/01/06 06:00:50;;;;;;;17.27;3.03;;;1.70;99.90;;;;;;4982473;28;20096;-69
2022/01/06 06:03:15;;;;;;;25.33;3.90;;;1.70;99.90;;;;;;4979329;28;20046;-68
2022/01/06 06:05:42;;;;;;;18.88;3.95;;;1.60;99.90;;;;;;4999019;28;20092;-69
2022/01/06 06:08:10;;;;;;;21.88;3.75;;;1.70;99.90;;;;;;4981463;28;20129;-69
2022/01/06 06:10:36;;;;;;;18.73;3.20;;;1.70;99.90;;;;;;4983387;28;20052;-69
2022/01/06 06:13:03;;;;;;;26.15;3.63;;;1.60;99.90;;;;;;4997170;28;20798;-69
2022/01/06 06:15:34;;;;;;;21.05;3.53;;;1.60;99.90;;;;;;4980994;28;20532;-69
2022/01/06 06:18:01;;;;;;;18.58;4.05;;;1.60;99.90;;;;;;4977942;28;20042;-69
2022/01/06 06:20:26;;;;;;;23.92;3.97;;;1.60;99.90;;;;;;4987980;28;20041;-69
2022/01/06 06:22:52;;;;;;;17.85;3.67;;;1.70;99.90;;;;;;4981152;28;20100;-69
2022/01/06 06:25:18;;;;;;;18.08;3.72;;;1.70;99.90;;;;;;4979815;28;20082;-69
2022/01/06 06:27:43;;;;;;;24.88;3.85;;;1.70;99.90;;;;;;4991815;28;20113;-69
2022/01/06 06:30:10;;;;;;;20.55;3.67;;;1.70;99.90;;;;;;4978501;28;20050;-68
2022/01/06 06:32:35;;;;;;;26.15;5.68;;;1.70;99.90;;;;;;4969859;28;20041;-69
2022/01/06 06:35:03;;;;;;;27.38;4.70;;;1.60;99.90;;;;;;4944693;28;20039;-69
2022/01/06 06:37:29;;;;;;;18.88;3.20;;;1.60;99.90;;;;;;4966273;28;20100;-69
2022/01/06 06:39:57;;;;;;;27.10;3.90;;;1.60;99.90;;;;;;4969427;28;20030;-69
2022/01/06 06:42:23;;;;;;;22.80;3.50;;;1.60;99.90;;;;;;4980899;28;20511;-69
2022/01/06 06:44:49;;;;;;;22.13;3.90;;;1.50;99.90;;;;;;4969340;28;20134;-69
2022/01/06 06:47:15;;;;;;;18.95;2.92;;;1.50;99.90;;;;;;4968834;28;20043;-69
2022/01/06 06:49:41;;;;;;;18.33;2.70;;;1.50;99.90;;;;;;4995181;28;20042;-69
2022/01/06 06:52:06;;;;;;;16.95;3.00;;;1.50;99.90;;;;;;4987168;28;20046;-69
2022/01/06 06:54:32;;;;;;;23.85;2.83;;;1.50;99.90;;;;;;4988874;28;20128;-69
2022/01/06 06:56:58;;;;;;;23.90;3.53;;;1.50;99.90;;;;;;4985427;28;20046;-69
2022/01/06 06:59:23;;;;;;;18.50;4.35;;;1.50;99.90;;;;;;4972490;28;20046;-69
2022/01/06 07:01:49;;;;;;;17.05;3.88;;;1.60;99.90;;;;;;4986986;28;20041;-69
2022/01/06 07:04:14;;;;;;;21.52;3.55;;;1.60;99.90;;;;;;4970378;28;20046;-69
2022/01/06 07:06:40;;;;;;;16.75;3.08;;;1.70;99.90;;;;;;4968881;28;20152;-69
2022/01/06 07:09:06;;;;;;;23.52;3.10;;;1.80;99.90;;;;;;4978457;28;20078;-69
2022/01/06 07:11:32;;;;;;;20.98;3.53;;;1.90;99.90;;;;;;4984727;28;20077;-69
2022/01/06 07:13:58;;;;;;;25.15;4.60;;;1.90;99.90;;;;;;4967147;28;20421;-68
2022/01/06 07:16:23;;;;;;;19.40;3.67;;;2.00;99.90;;;;;;4970689;28;20046;-69
2022/01/06 07:18:49;;;;;;;23.75;4.30;;;2.00;99.90;;;;;;4968537;28;20048;-69
2022/01/06 07:21:15;;;;;;;22.83;3.47;;;2.00;99.90;;;;;;4988359;28;20042;-69
2022/01/06 07:23:40;;;;;;;22.75;3.90;;;2.00;99.90;;;;;;4991099;28;20481;-69
2022/01/06 07:26:06;;;;;;;27.70;3.25;;;1.90;99.90;;;;;;4984270;28;20046;-69
2022/01/06 07:28:32;;;;;;;36.55;6.00;;;1.90;99.90;;;;;;4987575;28;20042;-69
2022/01/06 07:30:58;;;;;;;21.13;3.30;;;1.80;99.90;;;;;;4974888;28;20063;-69
2022/01/06 07:33:23;;;;;;;23.65;4.10;;;1.80;99.90;;;;;;4953393;28;20070;-69
2022/01/06 07:35:49;;;;;;;23.17;3.72;;;1.70;99.90;;;;;;4959641;28;20101;-68
2022/01/06 07:38:15;;;;;;;21.10;3.53;;;1.70;99.90;;;;;;4960540;28;20042;-69
2022/01/06 07:40:41;;;;;;;20.27;3.15;;;1.70;99.90;;;;;;4960263;28;20133;-68
2022/01/06 07:43:06;;;;;;;23.63;5.70;;;1.70;99.90;;;;;;4977840;28;20043;-68
2022/01/06 07:45:32;;;;;;;15.27;3.75;;;1.70;99.90;;;;;;4977941;28;20109;-68
2022/01/06 07:48:01;;;;;;;18.15;3.33;;;1.70;99.90;;;;;;4959469;28;20046;-69
2022/01/06 07:50:32;;;;;;;24.92;3.58;;;1.70;99.90;;;;;;4956495;28;20718;-68
2022/01/06 07:52:58;;;;;;;30.35;8.07;;;1.70;99.90;;;;;;4959103;28;20053;-69
2022/01/06 07:55:24;;;;;;;25.20;6.78;;;1.70;99.90;;;;;;4978729;28;20073;-69
2022/01/06 07:57:51;;;;;;;28.42;8.07;;;1.70;99.90;;;;;;4982837;28;20547;-69
2022/01/06 08:00:18;;;;;;;33.92;8.70;;;1.70;99.90;;;;;;4947872;28;20046;-69
2022/01/06 08:02:45;;;;;;;27.98;8.38;;;1.70;99.90;;;;;;4979301;28;20181;-69
2022/01/06 08:05:13;;;;;;;33.05;11.23;;;1.70;99.90;;;;;;4979207;28;20055;-69
2022/01/06 08:07:39;;;;;;;32.00;8.23;;;1.80;99.90;;;;;;4963475;28;20050;-69
2022/01/06 08:10:07;;;;;;;26.13;9.00;;;1.80;99.90;;;;;;4960591;28;20509;-69
2022/01/06 08:12:33;;;;;;;25.17;6.88;;;1.80;99.90;;;;;;4962916;28;20045;-69
2022/01/06 08:14:59;;;;;;;20.05;5.53;;;1.80;99.90;;;;;;4978774;28;20057;-69
2022/01/06 08:17:25;;;;;;;28.20;7.57;;;1.80;99.90;;;;;;4980344;28;20065;-69
2022/01/06 08:19:52;;;;;;;16.48;5.20;;;1.80;99.90;;;;;;4978811;28;20054;-69
2022/01/06 08:22:21;;;;;;;17.13;5.43;;;1.80;99.90;;;;;;4963258;28;20042;-69
2022/01/06 08:24:47;;;;;;;22.63;5.15;;;1.80;99.90;;;;;;4962057;28;20829;-69
2022/01/06 08:27:12;;;;;;;28.02;6.53;;;1.80;99.90;;;;;;4979079;28;20069;-69
2022/01/06 08:29:39;;;;;;;19.70;5.82;;;1.70;99.90;;;;;;4958895;28;20047;-68
2022/01/06 08:32:06;;;;;;;19.25;4.72;;;1.80;99.90;;;;;;4982934;28;20038;-69
2022/01/06 08:34:33;;;;;;;24.70;5.57;;;1.70;99.90;;;;;;4990467;28;20089;-69
2022/01/06 08:36:58;;;;;;;31.08;4.97;;;1.70;99.90;;;;;;4973754;28;20116;-69
2022/01/06 08:39:24;;;;;;;25.40;4.25;;;1.70;99.90;;;;;;4987158;28;20046;-68
2022/01/06 08:41:51;;;;;;;16.33;4.45;;;1.70;99.90;;;;;;4999607;28;20042;-67
2022/01/06 08:44:16;;;;;;;23.13;4.82;;;1.70;99.90;;;;;;4986845;28;20113;-70
2022/01/06 08:46:42;;;;;;;18.17;4.63;;;1.70;99.90;;;;;;4986054;28;20046;-69
2022/01/06 08:49:11;;;;;;;21.00;3.72;;;1.70;99.90;;;;;;5004514;28;20502;-70
2022/01/06 08:51:38;;;;;;;17.42;4.13;;;1.80;99.90;;;;;;5007874;28;20066;-69
2022/01/06 08:54:04;;;;;;;14.40;4.47;;;1.80;99.90;;;;;;4982849;28;20060;-69
2022/01/06 08:56:30;;;;;;;40.72;12.32;;;1.80;99.90;;;;;;4981035;28;20045;-69
2022/01/06 08:58:56;;;;;;;43.38;13.15;;;1.80;99.90;;;;;;4980894;28;20295;-69
2022/01/06 09:01:21;;;;;;;46.25;15.45;;;1.80;99.90;;;;;;4995018;28;20053;-69
2022/01/06 09:03:47;;;;;;;32.17;11.32;;;1.90;99.90;;;;;;4999036;28;20084;-69
2022/01/06 09:06:13;;;;;;;30.85;9.02;;;1.90;99.90;;;;;;4969083;28;20058;-70
2022/01/06 09:08:39;;;;;;;24.48;7.20;;;1.90;99.90;;;;;;4978887;28;20050;-69
2022/01/06 09:11:05;;;;;;;24.50;7.80;;;1.90;99.90;;;;;;4979028;28;20928;-69
2022/01/06 09:13:30;;;;;;;13.57;5.55;;;2.00;99.90;;;;;;4979614;28;20037;-68
2022/01/06 09:15:56;;;;;;;23.23;5.82;;;2.00;99.90;;;;;;4983926;28;20173;-69
2022/01/06 09:18:22;;;;;;;21.20;4.95;;;2.00;99.90;;;;;;4981797;28;20679;-69
2022/01/06 09:20:48;;;;;;;27.55;5.47;;;2.00;99.90;;;;;;4982395;28;20034;-69
2022/01/06 09:23:14;;;;;;;24.83;5.03;;;2.10;99.90;;;;;;4981395;28;20065;-69
2022/01/06 09:25:40;;;;;;;23.60;5.55;;;2.10;99.90;;;;;;4998450;28;20050;-72
2022/01/06 09:28:06;;;;;;;24.08;4.20;;;2.10;99.90;;;;;;4976288;28;20120;-67
2022/01/06 09:30:31;;;;;;;26.20;4.78;;;2.20;99.90;;;;;;4987367;28;20039;-68
2022/01/06 09:32:57;;;;;;;29.55;5.13;;;2.20;99.90;;;;;;4998375;28;20041;-68
2022/01/06 09:35:23;;;;;;;24.20;4.72;;;2.20;99.90;;;;;;4998804;28;20042;-68
2022/01/06 09:37:49;;;;;;;24.88;4.53;;;2.30;99.90;;;;;;4978757;28;20042;-68
2022/01/06 09:40:15;;;;;;;20.55;5.35;;;2.30;99.90;;;;;;4993824;28;20038;-68
2022/01/06 09:42:42;;;;;;;27.35;6.18;;;2.30;99.90;;;;;;4982884;28;20064;-68
2022/01/06 09:45:08;;;;;;;20.05;4.70;;;2.40;99.90;;;;;;4995418;28;20534;-69
2022/01/06 09:47:37;;;;;;;25.13;5.13;;;2.40;99.90;;;;;;5000601;28;20116;-68
2022/01/06 09:50:04;;;;;;;31.05;5.75;;;2.50;99.90;;;;;;4997629;28;20053;-69
2022/01/06 09:52:30;;;;;;;16.38;5.10;;;2.60;99.90;;;;;;4996871;28;20101;-70
2022/01/06 09:55:24;;;;;;;18.48;3.47;;;2.60;99.90;;;;;;4997881;28;20128;-70
2022/01/06 10:00:37;;;;;;;24.67;4.85;;;2.70;99.90;;;;;;5019479;28;20049;-66
2022/01/06 10:03:05;;;;;;;22.42;4.95;;;2.80;99.90;;;;;;5018517;28;20119;-67
2022/01/06 10:05:49;;;;;;;32.85;6.10;;;2.90;99.90;;;;;;5016811;28;20045;-67
2022/01/06 10:08:27;;;;;;;27.08;4.93;;;3.00;99.90;;;;;;5020188;28;20132;-67
2022/01/06 10:11:18;;;;;;;24.23;4.63;;;3.10;99.90;;;;;;5015858;28;20336;-66
2022/01/06 10:13:45;;;;;;;22.10;4.65;;;3.10;99.90;;;;;;5019646;28;20076;-67
2022/01/06 10:16:16;;;;;;;23.50;4.35;;;3.20;99.90;;;;;;5017081;28;20033;-66
2022/01/06 10:19:01;;;;;;;27.98;5.43;;;3.30;99.90;;;;;;5017524;28;20053;-66
2022/01/06 10:21:42;;;;;;;34.95;4.97;;;3.30;99.90;;;;;;5018494;28;20053;-66
2022/01/06 10:24:22;;;;;;;25.83;3.92;;;3.40;99.90;;;;;;5014204;28;20061;-67
2022/01/06 10:26:55;;;;;;;20.95;4.95;;;3.40;99.90;;;;;;5014265;28;20558;-65
2022/01/06 10:29:23;;;;;;;28.67;5.72;;;3.40;99.90;;;;;;5014841;28;20050;-66
2022/01/06 10:31:49;;;;;;;18.35;3.97;;;3.40;99.90;;;;;;5026714;28;20447;-66
2022/01/06 10:34:14;;;;;;;25.17;5.22;;;3.50;99.90;;;;;;5012868;28;20060;-66
2022/01/06 10:36:41;;;;;;;23.10;3.95;;;3.60;99.90;;;;;;5017433;28;20042;-66
2022/01/06 10:39:08;;;;;;;23.15;6.30;;;3.70;99.90;;;;;;5013690;28;20263;-67
2022/01/06 10:41:36;;;;;;;23.83;6.82;;;3.80;99.90;;;;;;5011995;28;20056;-66
2022/01/06 10:44:03;;;;;;;26.58;4.22;;;3.90;99.90;;;;;;5016253;28;20060;-67
2022/01/06 10:46:40;;;;;;;22.95;5.28;;;4.00;99.90;;;;;;5011533;28;20051;-66
2022/01/06 10:49:09;;;;;;;24.05;3.97;;;4.10;99.90;;;;;;5012525;28;20076;-68
2022/01/06 10:51:36;;;;;;;15.20;3.30;;;4.20;99.90;;;;;;5017670;28;20045;-66
2022/01/06 10:54:02;;;;;;;26.45;4.43;;;4.20;99.90;;;;;;5016056;28;20045;-66
2022/01/06 10:56:28;;;;;;;20.75;3.13;;;4.30;99.90;;;;;;5017546;28;20112;-66
2022/01/06 10:59:00;;;;;;;20.27;3.00;;;4.40;99.90;;;;;;5017374;28;20389;-66
2022/01/06 11:01:26;;;;;;;14.63;3.13;;;4.60;99.90;;;;;;5014902;28;20048;-66
2022/01/06 11:03:51;;;;;;;17.50;3.25;;;4.70;99.90;;;;;;5014652;28;20038;-66
2022/01/06 11:06:17;;;;;;;12.10;2.38;;;4.90;99.90;;;;;;5012350;28;20049;-66
2022/01/06 11:08:43;;;;;;;15.57;2.58;;;4.90;99.90;;;;;;5011035;28;20098;-66
2022/01/06 11:13:39;;;;;;;16.35;2.60;;;5.00;99.90;;;;;;5011895;28;20053;-68
2022/01/06 11:16:06;;;;;;;14.30;2.72;;;4.90;99.90;;;;;;5017397;28;20037;-68
2022/01/06 11:18:32;;;;;;;15.57;3.00;;;4.80;99.90;;;;;;5020082;28;20128;-67
2022/01/06 11:21:13;;;;;;;22.67;3.30;;;4.80;99.90;;;;;;5011003;28;20229;-68
2022/01/06 11:23:39;;;;;;;21.23;2.70;;;4.80;99.90;;;;;;5009494;28;20068;-65
2022/01/06 11:26:11;;;;;;;13.77;3.67;;;4.70;99.90;;;;;;5018307;28;20049;-65
2022/01/06 11:28:38;;;;;;;13.23;2.95;;;4.70;99.90;;;;;;5021997;28;20046;-65
2022/01/06 11:31:19;;;;;;;13.18;2.70;;;4.70;99.90;;;;;;5024722;28;20042;-66
2022/01/06 11:33:47;;;;;;;14.05;2.67;;;4.70;99.90;;;;;;5023200;28;20045;-65
2022/01/06 11:36:30;;;;;;;17.38;2.83;;;4.70;99.90;;;;;;5021138;28;20041;-65
2022/01/06 11:38:58;;;;;;;13.43;2.42;;;4.70;99.90;;;;;;5023892;28;20497;-65
2022/01/06 11:41:31;;;;;;;13.80;2.50;;;4.70;99.90;;;;;;5016279;28;20060;-66
2022/01/06 11:43:58;;;;;;;15.23;2.40;;;4.80;99.90;;;;;;5017366;28;20045;-66
2022/01/06 11:46:44;;;;;;;12.68;3.25;;;4.80;99.90;;;;;;5020533;28;20052;-65
2022/01/06 11:49:10;;;;;;;11.68;2.00;;;4.80;99.90;;;;;;5021176;28;20044;-66
2022/01/06 11:51:37;;;;;;;12.20;2.13;;;4.90;99.90;;;;;;5018371;28;20053;-66
2022/01/06 11:54:19;;;;;;;14.75;2.50;;;4.90;99.90;;;;;;5021511;28;20400;-65
2022/01/06 11:56:51;;;;;;;13.07;2.33;;;4.90;99.90;;;;;;5021374;28;20125;-66
2022/01/06 11:59:28;;;;;;;15.88;3.33;;;4.90;99.90;;;;;;5018509;28;20046;-67
2022/01/06 12:01:54;;;;;;;17.17;2.85;;;4.90;99.90;;;;;;5020723;28;20598;-66
2022/01/06 12:04:21;;;;;;;13.73;3.58;;;5.00;99.90;;;;;;5021326;28;20125;-67
2022/01/06 12:06:48;;;;;;;13.38;3.10;;;5.10;99.90;;;;;;5021527;28;20041;-67
2022/01/06 12:09:23;;;;;;;11.13;2.55;;;5.10;99.90;;;;;;5020789;28;20776;-67
2022/01/06 12:12:07;;;;;;;11.15;3.03;;;5.10;99.90;;;;;;5022272;28;20060;-67
2022/01/06 12:14:33;;;;;;;10.77;2.30;;;5.10;99.90;;;;;;5019539;28;20051;-67
2022/01/06 12:17:08;;;;;;;8.77;1.75;;;5.10;99.90;;;;;;5017063;28;20042;-66
2022/01/06 12:19:34;;;;;;;9.25;2.50;;;5.20;99.90;;;;;;5022858;28;20056;-67
2022/01/06 12:22:00;;;;;;;7.65;2.40;;;5.20;99.90;;;;;;5019502;28;20126;-66
2022/01/06 12:24:26;;;;;;;9.50;1.75;;;5.30;99.90;;;;;;5016895;28;20105;-67
2022/01/06 12:26:54;;;;;;;8.70;1.90;;;5.30;99.90;;;;;;5015577;28;20224;-67
2022/01/06 12:29:23;;;;;;;9.45;2.33;;;5.40;99.90;;;;;;5012320;28;20549;-67
2022/01/06 12:31:49;;;;;;;12.82;1.98;;;5.40;99.90;;;;;;5017914;28;20407;-66
2022/01/06 12:34:15;;;;;;;5.95;1.60;;;5.50;99.90;;;;;;5019018;28;20140;-67
2022/01/06 12:36:43;;;;;;;12.20;2.83;;;5.50;99.90;;;;;;5010547;28;20045;-67
2022/01/06 12:39:20;;;;;;;10.32;2.22;;;5.50;99.90;;;;;;5010254;28;20037;-67
2022/01/06 12:41:47;;;;;;;14.60;2.67;;;5.60;99.90;;;;;;5016787;28;20049;-67
2022/01/06 12:44:22;;;;;;;14.25;2.60;;;5.60;99.90;;;;;;5014897;28;20038;-67
2022/01/06 12:46:48;;;;;;;14.55;3.60;;;5.60;99.90;;;;;;5015011;28;20132;-67
2022/01/06 12:49:14;;;;;;;16.83;4.45;;;5.60;99.90;;;;;;5017384;28;20436;-67
2022/01/06 12:51:46;;;;;;;21.10;7.40;;;5.60;99.90;;;;;;5019164;28;20049;-67
2022/01/06 12:54:16;;;;;;;14.32;4.32;;;5.70;99.90;;;;;;5023530;28;20509;-68
2022/01/06 12:57:00;;;;;;;15.07;2.63;;;5.70;99.90;;;;;;5021586;28;20164;-67
2022/01/06 12:59:34;;;;;;;12.02;1.77;;;5.70;99.90;;;;;;5017678;28;20049;-67
2022/01/06 13:02:09;;;;;;;11.95;2.35;;;5.80;99.90;;;;;;5019588;28;20041;-67